createdAt,value
2023-03-04T00:01:28.665Z,886.00
2023-03-04T00:02:27.740Z,881.00
2023-03-04T00:03:27.779Z,879.00
2023-03-04T00:04:27.760Z,879.00
2023-03-04T00:05:27.768Z,879.00
2023-03-04T00:06:27.796Z,882.00
2023-03-04T00:07:27.794Z,871.00
2023-03-04T00:08:27.806Z,861.00
2023-03-04T00:09:27.822Z,883.00
2023-03-04T00:10:27.837Z,874.00
2023-03-04T00:11:27.841Z,866.00
2023-03-04T00:12:27.851Z,876.00
2023-03-04T00:13:27.856Z,883.00
2023-03-04T00:14:30.328Z,872.00
2023-03-04T00:15:28.057Z,879.00
2023-03-04T00:16:28.101Z,863.00
2023-03-04T00:17:28.063Z,879.00
2023-03-04T00:18:28.121Z,861.00
2023-03-04T00:19:28.134Z,867.00
2023-03-04T00:20:28.095Z,862.00
2023-03-04T00:21:28.102Z,860.00
2023-03-04T00:22:28.112Z,862.00
2023-03-04T00:23:28.108Z,864.00
2023-03-04T00:24:28.121Z,853.00
2023-03-04T00:25:28.126Z,865.00
2023-03-04T00:26:28.133Z,857.00
2023-03-04T00:27:28.160Z,861.00
2023-03-04T00:28:28.164Z,848.00
2023-03-04T00:29:28.172Z,839.00
2023-03-04T00:30:28.179Z,833.00
2023-03-04T00:31:28.228Z,848.00
2023-03-04T00:32:28.310Z,847.00
2023-03-04T00:33:28.232Z,850.00
2023-03-04T00:34:28.246Z,833.00
2023-03-04T00:35:28.305Z,830.00
2023-03-04T00:36:28.267Z,832.00
2023-03-04T00:37:28.279Z,838.00
2023-03-04T00:38:29.164Z,824.00
2023-03-04T00:39:28.307Z,834.00
2023-03-04T00:40:28.312Z,836.00
2023-03-04T00:41:28.321Z,840.00
2023-03-04T00:42:28.392Z,827.00
2023-03-04T00:43:28.350Z,832.00
2023-03-04T00:44:28.444Z,821.00
2023-03-04T00:45:28.372Z,833.00
2023-03-04T00:46:28.391Z,839.00
2023-03-04T00:47:28.398Z,836.00
2023-03-04T00:48:28.410Z,841.00
2023-03-04T00:49:28.425Z,830.00
2023-03-04T00:50:28.437Z,832.00
2023-03-04T00:51:28.440Z,818.00
2023-03-04T00:52:28.453Z,822.00
2023-03-04T00:53:28.463Z,822.00
2023-03-04T00:54:28.478Z,827.00
2023-03-04T00:55:28.496Z,815.00
2023-03-04T00:56:28.524Z,825.00
2023-03-04T00:57:28.508Z,818.00
2023-03-04T00:58:28.523Z,808.00
2023-03-04T00:59:28.663Z,813.00
2023-03-04T01:00:28.567Z,809.00
2023-03-04T01:01:28.626Z,809.00
2023-03-04T01:02:28.620Z,822.00
2023-03-04T01:03:28.583Z,807.00
2023-03-04T01:04:28.597Z,808.00
2023-03-04T01:05:28.610Z,803.00
2023-03-04T01:06:28.615Z,790.00
2023-03-04T01:07:28.633Z,799.00
2023-03-04T01:08:28.650Z,794.00
2023-03-04T01:09:28.662Z,802.00
2023-03-04T01:10:29.663Z,798.00
2023-03-04T01:11:28.722Z,805.00
2023-03-04T01:12:28.707Z,810.00
2023-03-04T01:13:28.724Z,795.00
2023-03-04T01:14:28.737Z,810.00
2023-03-04T01:15:28.744Z,802.00
2023-03-04T01:16:28.786Z,796.00
2023-03-04T01:17:29.165Z,793.00
2023-03-04T01:18:28.777Z,785.00
2023-03-04T01:19:28.787Z,796.00
2023-03-04T01:20:28.799Z,801.00
2023-03-04T01:21:28.825Z,799.00
2023-03-04T01:22:28.820Z,789.00
2023-03-04T01:23:28.910Z,795.00
2023-03-04T01:24:28.852Z,793.00
2023-03-04T01:25:28.850Z,794.00
2023-03-04T01:26:29.163Z,781.00
2023-03-04T01:27:28.934Z,788.00
2023-03-04T01:28:28.954Z,800.00
2023-03-04T01:29:30.274Z,790.00
2023-03-04T01:30:28.888Z,799.00
2023-03-04T01:31:28.900Z,790.00
2023-03-04T01:32:28.958Z,790.00
2023-03-04T01:33:28.923Z,777.00
2023-03-04T01:34:28.931Z,796.00
2023-03-04T01:35:28.973Z,782.00
2023-03-04T01:36:28.968Z,784.00
2023-03-04T01:37:28.982Z,767.00
2023-03-04T01:38:29.004Z,774.00
2023-03-04T01:39:29.137Z,773.00
2023-03-04T01:40:29.018Z,776.00
2023-03-04T01:41:29.106Z,781.00
2023-03-04T01:42:29.046Z,770.00
2023-03-04T01:43:29.054Z,766.00
2023-03-04T01:44:29.067Z,773.00
2023-03-04T01:45:29.094Z,763.00
2023-03-04T01:46:29.229Z,766.00
2023-03-04T01:47:29.110Z,770.00
2023-03-04T01:48:29.139Z,751.00
2023-03-04T01:49:29.131Z,768.00
2023-03-04T01:50:29.132Z,771.00
2023-03-04T01:51:29.166Z,771.00
2023-03-04T01:52:29.165Z,769.00
2023-03-04T01:53:29.160Z,776.00
2023-03-04T01:54:29.174Z,772.00
2023-03-04T01:55:29.185Z,768.00
2023-03-04T01:56:29.188Z,755.00
2023-03-04T01:57:29.201Z,763.00
2023-03-04T01:58:29.220Z,766.00
2023-03-04T01:59:29.226Z,757.00
2023-03-04T02:00:29.230Z,761.00
2023-03-04T02:01:29.296Z,755.00
2023-03-04T02:02:29.248Z,761.00
2023-03-04T02:03:29.253Z,770.00
2023-03-04T02:04:29.315Z,756.00
2023-03-04T02:05:29.276Z,748.00
2023-03-04T02:06:29.290Z,748.00
2023-03-04T02:07:29.303Z,753.00
2023-03-04T02:08:29.436Z,760.00
2023-03-04T02:09:29.315Z,767.00
2023-03-04T02:10:29.340Z,742.00
2023-03-04T02:11:29.342Z,759.00
2023-03-04T02:12:29.359Z,741.00
2023-03-04T02:13:29.362Z,747.00
2023-03-04T02:14:29.386Z,754.00
2023-03-04T02:15:29.454Z,747.00
2023-03-04T02:16:29.402Z,744.00
2023-03-04T02:17:29.416Z,733.00
2023-03-04T02:18:29.427Z,743.00
2023-03-04T02:19:29.431Z,752.00
2023-03-04T02:20:29.440Z,757.00
2023-03-04T02:21:29.457Z,739.00
2023-03-04T02:22:29.661Z,740.00
2023-03-04T02:23:29.473Z,736.00
2023-03-04T02:24:29.486Z,748.00
2023-03-04T02:25:29.494Z,742.00
2023-03-04T02:26:29.511Z,740.00
2023-03-04T02:27:29.569Z,729.00
2023-03-04T02:28:29.538Z,725.00
2023-03-04T02:29:29.522Z,740.00
2023-03-04T02:30:29.590Z,732.00
2023-03-04T02:31:29.601Z,736.00
2023-03-04T02:32:29.583Z,730.00
2023-03-04T02:33:29.559Z,730.00
2023-03-04T02:34:29.578Z,728.00
2023-03-04T03:01:29.908Z,708.00
2023-03-04T03:02:29.957Z,701.00
2023-03-04T03:03:29.896Z,720.00
2023-03-04T03:05:29.916Z,693.00
2023-03-04T03:06:29.920Z,694.00
2023-03-04T03:07:30.029Z,702.00
2023-03-04T03:08:30.159Z,693.00
2023-03-04T03:09:29.951Z,690.00
2023-03-04T03:10:29.964Z,703.00
2023-03-04T03:11:29.972Z,692.00
2023-03-04T03:12:29.994Z,685.00
2023-03-04T03:13:30.013Z,686.00
2023-03-04T03:14:30.015Z,686.00
2023-03-04T03:15:30.037Z,693.00
2023-03-04T03:16:30.101Z,709.00
2023-03-04T03:17:30.059Z,689.00
2023-03-04T03:18:30.646Z,697.00
2023-03-04T03:19:30.078Z,690.00
2023-03-04T03:20:30.658Z,687.00
2023-03-04T03:21:30.104Z,680.00
2023-03-04T03:22:30.648Z,671.00
2023-03-04T03:23:30.117Z,675.00
2023-03-04T03:24:30.139Z,702.00
2023-03-04T03:25:30.149Z,694.00
2023-03-04T03:26:30.649Z,679.00
2023-03-04T03:27:30.177Z,700.00
2023-03-04T03:28:30.203Z,690.00
2023-03-04T03:29:30.196Z,683.00
2023-03-04T03:30:30.213Z,677.00
2023-03-04T03:31:30.689Z,689.00
2023-03-04T03:32:30.290Z,693.00
2023-03-04T03:33:30.248Z,680.00
2023-03-04T03:34:30.262Z,680.00
2023-03-04T03:35:30.359Z,675.00
2023-03-04T03:36:30.365Z,683.00
2023-03-04T03:37:30.359Z,668.00
2023-03-04T03:38:30.310Z,682.00
2023-03-04T03:39:31.142Z,682.00
2023-03-04T03:40:30.327Z,670.00
2023-03-04T03:41:30.350Z,672.00
2023-03-04T03:42:30.354Z,675.00
2023-03-04T03:43:30.365Z,691.00
2023-03-04T03:44:30.389Z,678.00
2023-03-04T03:45:30.407Z,674.00
2023-03-04T03:46:30.401Z,673.00
2023-03-04T03:47:30.406Z,677.00
2023-03-04T03:48:30.437Z,679.00
2023-03-04T03:49:30.480Z,666.00
2023-03-04T03:50:30.435Z,674.00
2023-03-04T03:51:31.140Z,661.00
2023-03-04T04:25:30.835Z,653.00
2023-03-04T04:28:30.861Z,662.00
2023-03-04T04:29:30.853Z,652.00
2023-03-04T04:30:30.930Z,661.00
2023-03-04T04:31:30.878Z,659.00
2023-03-04T04:32:30.919Z,658.00
2023-03-04T05:50:31.569Z,638.00
2023-03-04T05:51:31.577Z,640.00
2023-03-04T05:52:31.596Z,639.00
2023-03-04T05:53:31.611Z,637.00
2023-03-04T05:54:31.620Z,640.00
2023-03-04T05:55:31.630Z,639.00
2023-03-04T05:56:31.662Z,643.00
2023-03-04T05:57:32.538Z,637.00
2023-03-04T05:58:31.669Z,637.00
2023-03-04T05:59:31.668Z,638.00
2023-03-04T06:00:31.681Z,639.00
2023-03-04T06:01:31.698Z,636.00
2023-03-04T06:02:31.725Z,638.00
2023-03-04T06:03:31.767Z,638.00
2023-03-04T06:04:31.736Z,638.00
2023-03-04T06:05:31.740Z,637.00
2023-03-04T06:06:31.751Z,643.00
2023-03-04T06:07:31.757Z,635.00
2023-03-04T06:08:31.766Z,636.00
2023-03-04T06:09:31.765Z,636.00
2023-03-04T06:10:31.777Z,639.00
2023-03-04T06:11:34.691Z,635.00
2023-03-04T06:12:31.848Z,635.00
2023-03-04T06:13:31.791Z,636.00
2023-03-04T06:14:31.782Z,636.00
2023-03-04T06:15:31.799Z,635.00
2023-03-04T06:16:31.889Z,639.00
2023-03-04T06:17:31.805Z,636.00
2023-03-04T06:18:31.961Z,633.00
2023-03-04T06:19:31.888Z,634.00
2023-03-04T06:20:31.806Z,629.00
2023-03-04T06:21:31.811Z,631.00
2023-03-04T06:22:31.855Z,637.00
2023-03-04T06:23:31.840Z,634.00
2023-03-04T06:24:31.827Z,628.00
2023-03-04T06:25:31.833Z,630.00
2023-03-04T06:26:31.834Z,633.00
2023-03-04T06:27:31.836Z,629.00
2023-03-04T06:28:31.848Z,631.00
2023-03-04T06:29:31.853Z,625.00
2023-03-04T06:30:31.846Z,633.00
2023-03-04T06:31:31.881Z,630.00
2023-03-04T06:32:31.931Z,630.00
2023-03-04T06:33:31.864Z,630.00
2023-03-04T06:34:31.869Z,627.00
2023-03-04T06:35:31.981Z,630.00
2023-03-04T06:36:31.878Z,637.00
2023-03-04T06:37:31.882Z,629.00
2023-03-04T06:38:31.895Z,636.00
2023-03-04T06:39:31.894Z,627.00
2023-03-04T06:40:31.900Z,626.00
2023-03-04T06:41:31.906Z,633.00
2023-03-04T06:42:31.924Z,631.00
2023-03-04T06:43:31.918Z,630.00
2023-03-04T06:44:31.909Z,628.00
2023-03-04T06:45:31.914Z,632.00
2023-03-04T06:46:32.019Z,634.00
2023-03-04T06:47:31.925Z,630.00
2023-03-04T06:48:32.092Z,630.00
2023-03-04T06:49:31.948Z,625.00
2023-03-04T06:50:31.942Z,628.00
2023-03-04T06:51:31.943Z,631.00
2023-03-04T06:52:31.952Z,629.00
2023-03-04T06:53:31.951Z,635.00
2023-03-04T06:54:31.971Z,629.00
2023-03-04T10:22:37.779Z,591.00
2023-03-04T10:23:37.840Z,591.00
2023-03-04T10:24:37.906Z,586.00
2023-03-04T10:25:37.973Z,589.00
2023-03-04T10:26:38.043Z,587.00
2023-03-04T10:27:38.109Z,586.00
2023-03-04T10:28:38.187Z,587.00
2023-03-04T10:29:38.313Z,588.00
2023-03-04T10:30:38.330Z,588.00
2023-03-04T10:31:38.485Z,587.00
2023-03-04T11:15:41.449Z,565.00
2023-03-04T11:16:41.557Z,573.00
2023-03-04T11:17:41.704Z,571.00
2023-03-04T11:18:41.659Z,577.00
2023-03-04T11:52:43.976Z,582.00
2023-03-04T11:53:44.045Z,581.00
2023-03-04T11:54:44.094Z,585.00
2023-03-04T11:55:44.158Z,589.00
2023-03-04T11:56:44.217Z,590.00
2023-03-04T11:57:44.286Z,590.00
2023-03-04T11:58:44.371Z,591.00
2023-03-04T11:59:44.397Z,590.00
2023-03-04T12:00:44.448Z,595.00
2023-03-04T12:01:44.528Z,595.00
2023-03-04T12:02:44.576Z,596.00
2023-03-04T12:03:44.803Z,596.00
2023-03-04T12:04:44.713Z,602.00
2023-03-04T12:05:44.746Z,599.00
2023-03-04T12:06:44.795Z,601.00
2023-03-04T12:07:44.853Z,597.00
2023-03-04T12:08:45.598Z,599.00
2023-03-04T12:09:44.968Z,599.00
2023-03-04T12:10:45.591Z,601.00
2023-03-04T12:11:45.078Z,602.00
2023-03-04T12:12:45.146Z,600.00
2023-03-04T12:13:45.208Z,600.00
2023-03-04T12:14:45.280Z,599.00
2023-03-04T12:15:45.384Z,599.00
2023-03-04T12:16:45.409Z,601.00
2023-03-04T12:17:45.475Z,595.00
2023-03-04T12:18:45.535Z,597.00
2023-03-04T12:19:45.591Z,591.00
2023-03-04T12:20:45.635Z,599.00
2023-03-04T12:21:45.711Z,593.00
2023-03-04T12:22:45.776Z,594.00
2023-03-04T12:23:45.832Z,595.00
2023-03-04T12:24:45.902Z,597.00
2023-03-04T12:25:45.959Z,593.00
2023-03-04T12:26:46.042Z,587.00
2023-03-04T12:27:46.089Z,587.00
2023-03-04T12:28:46.151Z,590.00
2023-03-04T12:29:46.287Z,588.00
2023-03-04T12:30:46.281Z,583.00
2023-03-04T12:31:46.328Z,583.00
2023-03-04T12:32:46.381Z,585.00
2023-03-04T12:33:46.545Z,584.00
2023-03-04T12:34:46.563Z,588.00
2023-03-04T12:35:46.656Z,580.00
2023-03-04T12:36:46.630Z,582.00
2023-03-04T12:37:46.699Z,581.00
2023-03-04T12:38:46.781Z,576.00
2023-03-04T12:39:46.840Z,576.00
2023-03-04T12:40:46.885Z,575.00
2023-03-04T12:41:46.946Z,573.00
2023-03-04T12:42:47.595Z,574.00
2023-03-04T12:43:47.135Z,578.00
2023-03-04T12:44:47.132Z,577.00
2023-03-04T12:45:47.201Z,577.00
2023-03-04T12:46:47.312Z,575.00
2023-03-04T12:47:47.325Z,577.00
2023-03-04T12:48:47.398Z,574.00
2023-03-04T12:49:47.453Z,569.00
2023-03-04T12:50:47.510Z,569.00
2023-03-04T12:51:47.562Z,562.00
2023-03-04T12:52:47.617Z,560.00
2023-03-04T12:53:47.676Z,564.00
2023-03-04T12:54:47.738Z,560.00
2023-03-04T12:55:47.791Z,566.00
2023-03-04T12:56:47.841Z,567.00
2023-03-04T12:57:47.952Z,563.00
2023-03-04T12:58:47.961Z,566.00
2023-03-04T12:59:48.013Z,568.00
2023-03-04T13:00:48.085Z,566.00
2023-03-04T13:01:48.125Z,571.00
2023-03-04T13:02:48.282Z,569.00
2023-03-04T13:03:48.304Z,569.00
2023-03-04T13:04:48.308Z,568.00
2023-03-04T13:05:48.454Z,568.00
2023-03-04T13:06:48.418Z,565.00
2023-03-04T13:07:48.485Z,567.00
2023-03-04T13:08:48.544Z,559.00
2023-03-04T13:09:48.684Z,556.00
2023-03-04T13:10:48.659Z,565.00
2023-03-04T13:11:48.718Z,561.00
2023-03-04T13:12:48.782Z,560.00
2023-03-04T13:13:48.846Z,559.00
2023-03-04T13:14:48.904Z,563.00
2023-03-04T13:15:49.003Z,559.00
2023-03-04T13:16:49.031Z,560.00
2023-03-04T13:17:49.592Z,561.00
2023-03-04T13:18:49.148Z,560.00
2023-03-04T13:19:49.211Z,552.00
2023-03-04T13:20:49.259Z,560.00
2023-03-04T13:21:49.328Z,558.00
2023-03-04T13:22:49.373Z,566.00
2023-03-04T13:23:49.432Z,560.00
2023-03-04T13:24:49.490Z,560.00
2023-03-04T13:25:49.553Z,561.00
2023-03-04T13:26:49.605Z,566.00
2023-03-04T13:27:49.661Z,562.00
2023-03-04T13:28:49.720Z,558.00
2023-03-04T13:29:49.788Z,562.00
2023-03-04T13:30:49.841Z,563.00
2023-03-04T13:31:49.902Z,557.00
2023-03-04T13:32:49.956Z,563.00
2023-03-04T13:33:50.012Z,561.00
2023-03-04T13:34:50.070Z,562.00
2023-03-04T13:35:50.321Z,566.00
2023-03-04T13:36:50.180Z,569.00
2023-03-04T13:37:50.241Z,564.00
2023-03-04T13:38:50.311Z,562.00
2023-03-04T13:39:50.363Z,565.00
2023-03-04T13:40:50.416Z,568.00
2023-03-04T13:41:50.467Z,563.00
2023-03-04T13:42:50.542Z,565.00
2023-03-04T13:43:50.587Z,569.00
2023-03-04T13:44:50.650Z,566.00
2023-03-04T13:45:50.718Z,566.00
2023-03-04T13:46:50.768Z,566.00
2023-03-04T13:47:50.821Z,569.00
2023-03-04T13:48:50.997Z,571.00
2023-03-04T13:49:50.943Z,575.00
2023-03-04T13:50:51.002Z,571.00
2023-03-04T13:51:51.070Z,570.00
2023-03-04T13:52:51.119Z,568.00
2023-03-04T13:53:51.175Z,569.00
2023-03-04T13:54:51.239Z,569.00
2023-03-04T13:55:51.605Z,570.00
2023-03-04T13:56:51.366Z,570.00
2023-03-04T13:57:51.437Z,572.00
2023-03-04T13:58:51.481Z,572.00
2023-03-04T13:59:51.533Z,578.00
2023-03-04T14:00:51.634Z,572.00
2023-03-04T14:01:51.664Z,575.00
2023-03-04T14:02:51.731Z,569.00
2023-03-04T14:03:51.852Z,571.00
2023-03-04T14:04:51.843Z,572.00
2023-03-04T14:05:51.930Z,571.00
2023-03-04T14:06:51.988Z,578.00
2023-03-04T14:07:52.031Z,574.00
2023-03-04T14:08:52.097Z,567.00
2023-03-04T14:09:52.211Z,576.00
2023-03-04T14:10:52.259Z,574.00
2023-03-04T14:11:52.278Z,569.00
2023-03-04T14:12:52.332Z,574.00
2023-03-04T14:13:52.390Z,577.00
2023-03-04T14:14:52.502Z,571.00
2023-03-04T14:15:52.532Z,574.00
2023-03-04T14:16:52.616Z,575.00
2023-03-04T14:17:52.675Z,573.00
2023-03-04T14:18:52.729Z,573.00
2023-03-04T14:19:54.019Z,569.00
2023-03-04T14:20:52.867Z,571.00
2023-03-04T14:21:52.941Z,573.00
2023-03-04T14:22:53.024Z,570.00
2023-03-04T14:23:53.070Z,576.00
2023-03-04T14:24:53.594Z,575.00
2023-03-04T14:25:53.211Z,571.00
2023-03-04T14:26:53.283Z,575.00
2023-03-04T14:27:53.333Z,573.00
2023-03-04T14:28:53.417Z,573.00
2023-03-04T14:29:53.477Z,575.00
2023-03-04T14:30:53.534Z,582.00
2023-03-04T14:31:53.741Z,580.00
2023-03-04T14:32:53.664Z,575.00
2023-03-04T14:33:53.733Z,578.00
2023-03-04T14:34:53.798Z,579.00
2023-03-04T14:35:53.922Z,574.00
2023-03-04T14:36:53.935Z,574.00
2023-03-04T14:37:54.000Z,578.00
2023-03-04T14:38:54.060Z,574.00
2023-03-04T14:39:54.131Z,575.00
2023-03-04T14:40:54.192Z,577.00
2023-03-04T14:41:54.278Z,572.00
2023-03-04T14:42:54.332Z,573.00
2023-03-04T14:43:54.401Z,573.00
2023-03-04T14:44:54.467Z,578.00
2023-03-04T14:45:54.629Z,576.00
2023-03-04T14:47:07.079Z,578.00
2023-03-04T14:47:55.608Z,578.00
2023-03-04T14:48:54.631Z,578.00
2023-03-04T14:49:54.598Z,578.00
2023-03-04T14:50:54.592Z,577.00
2023-03-04T14:51:54.601Z,576.00
2023-03-04T14:52:54.608Z,580.00
2023-03-04T14:53:54.666Z,579.00
2023-03-04T14:54:54.607Z,581.00
2023-03-04T14:55:54.680Z,579.00
2023-03-04T14:56:54.742Z,580.00
2023-03-04T14:57:54.816Z,575.00
2023-03-04T14:58:54.959Z,581.00
2023-03-04T14:59:54.973Z,583.00
2023-03-04T15:00:55.055Z,580.00
2023-03-04T15:01:55.090Z,582.00
2023-03-04T15:02:55.166Z,578.00
2023-03-04T15:03:55.233Z,579.00
2023-03-04T15:04:55.457Z,581.00
2023-03-04T15:05:55.370Z,581.00
2023-03-04T15:06:55.441Z,581.00
2023-03-04T15:07:55.522Z,580.00
2023-03-04T15:08:55.591Z,582.00
2023-03-04T15:09:55.664Z,578.00
2023-03-04T15:10:55.739Z,582.00
2023-03-04T15:11:55.802Z,579.00
2023-03-04T15:12:55.890Z,580.00
2023-03-04T15:13:55.964Z,582.00
2023-03-04T15:14:56.086Z,576.00
2023-03-04T15:15:56.113Z,580.00
2023-03-04T15:16:56.335Z,581.00
2023-03-04T15:17:56.219Z,585.00
2023-03-04T15:18:56.289Z,580.00
2023-03-04T15:19:56.401Z,585.00
2023-03-04T15:20:56.441Z,584.00
2023-03-04T15:21:56.501Z,586.00
2023-03-04T15:22:56.573Z,583.00
2023-03-04T15:23:56.640Z,584.00
2023-03-04T15:24:56.701Z,583.00
2023-03-04T15:25:56.770Z,584.00
2023-03-04T15:26:56.853Z,587.00
2023-03-04T15:27:56.927Z,587.00
2023-03-04T15:28:56.980Z,588.00
2023-03-04T15:29:57.076Z,582.00
2023-03-04T15:30:57.200Z,585.00
2023-03-04T15:31:57.254Z,588.00
2023-03-04T15:32:57.272Z,590.00
2023-03-04T15:33:57.323Z,586.00
2023-03-04T15:34:57.389Z,586.00
2023-03-04T15:35:57.483Z,591.00
2023-03-04T15:36:57.529Z,591.00
2023-03-04T15:37:57.603Z,585.00
2023-03-04T15:39:57.731Z,583.00
2023-03-04T15:40:57.800Z,592.00
2023-03-04T15:41:57.864Z,590.00
2023-03-04T15:42:57.962Z,592.00
2023-03-04T15:43:58.010Z,586.00
2023-03-04T15:44:58.070Z,588.00
2023-03-04T15:45:58.159Z,590.00
2023-03-04T15:46:58.184Z,577.00
2023-03-04T15:47:58.262Z,589.00
2023-03-04T15:48:58.321Z,586.00
2023-03-04T15:49:59.068Z,588.00
2023-03-04T15:50:58.426Z,589.00
2023-03-04T15:51:58.512Z,587.00
2023-03-04T15:52:58.570Z,583.00
2023-03-04T15:53:58.634Z,590.00
2023-03-04T15:54:58.708Z,592.00
2023-03-04T15:55:58.783Z,593.00
2023-03-04T15:56:58.864Z,591.00
2023-03-04T15:57:58.954Z,584.00
2023-03-04T15:58:58.963Z,582.00
2023-03-04T15:59:59.036Z,590.00
2023-03-04T16:00:59.103Z,590.00
2023-03-04T16:01:59.159Z,588.00
2023-03-04T16:02:59.224Z,585.00
2023-03-04T16:03:59.342Z,587.00
2023-03-04T16:04:59.375Z,588.00
2023-03-04T16:05:59.433Z,591.00
2023-03-04T16:06:59.513Z,586.00
2023-03-04T16:07:59.575Z,585.00
2023-03-04T16:08:59.659Z,585.00
2023-03-04T16:09:59.715Z,586.00
2023-03-04T16:10:59.798Z,589.00
2023-03-04T16:11:59.858Z,587.00
2023-03-04T16:12:59.926Z,590.00
2023-03-04T16:13:59.993Z,587.00
2023-03-04T16:15:00.089Z,590.00
2023-03-04T16:16:00.149Z,585.00
2023-03-04T16:17:00.200Z,589.00
2023-03-04T16:18:00.262Z,588.00
2023-03-04T16:19:00.334Z,586.00
2023-03-04T16:20:00.394Z,591.00
2023-03-04T16:21:00.467Z,588.00
2023-03-04T18:06:08.579Z,597.00
2023-03-04T18:07:07.728Z,597.00
2023-03-04T18:08:07.811Z,597.00
2023-03-04T18:09:07.870Z,600.00
2023-03-04T18:10:07.963Z,599.00
2023-03-04T18:11:08.018Z,594.00
2023-03-04T18:12:08.148Z,598.00
2023-03-04T18:13:08.166Z,591.00
2023-03-04T18:14:08.237Z,597.00
2023-03-04T18:15:08.295Z,594.00
2023-03-04T18:16:08.370Z,599.00
2023-03-04T18:17:08.441Z,599.00
2023-03-04T18:18:08.487Z,597.00
2023-03-04T18:19:08.538Z,599.00
2023-03-04T18:20:08.598Z,599.00
2023-03-04T18:21:08.727Z,599.00
2023-03-04T18:22:08.747Z,597.00
2023-03-04T18:23:08.895Z,597.00
2023-03-04T18:24:08.908Z,596.00
2023-03-04T18:25:08.979Z,596.00
2023-03-04T18:26:09.055Z,597.00
2023-03-04T18:27:10.051Z,598.00
2023-03-04T18:28:09.216Z,596.00
2023-03-04T18:29:09.277Z,600.00
2023-03-04T18:30:09.310Z,597.00
2023-03-04T18:31:09.339Z,600.00
2023-03-04T18:32:09.578Z,594.00
2023-03-04T18:33:09.618Z,595.00
2023-03-04T18:34:09.502Z,596.00
2023-03-04T18:35:09.603Z,596.00
2023-03-04T18:36:09.619Z,598.00
2023-03-04T18:37:09.640Z,594.00
2023-03-04T18:38:09.706Z,597.00
2023-03-04T18:39:10.554Z,596.00
2023-03-04T18:40:09.884Z,598.00
2023-03-04T18:41:09.867Z,599.00
2023-03-04T18:42:09.929Z,601.00
2023-03-04T18:43:10.065Z,599.00
2023-03-04T18:44:10.067Z,596.00
2023-03-04T18:45:10.182Z,601.00
2023-03-04T18:46:10.241Z,599.00
2023-03-04T18:47:10.242Z,597.00
2023-03-04T18:48:10.316Z,600.00
2023-03-04T18:49:10.403Z,600.00
2023-03-04T18:50:10.459Z,604.00
2023-03-04T18:51:10.506Z,599.00
2023-03-04T18:52:10.561Z,602.00
2023-03-04T18:53:10.629Z,601.00
2023-03-04T18:54:10.756Z,595.00
2023-03-04T18:55:10.782Z,596.00
2023-03-04T18:56:12.318Z,597.00
2023-03-04T18:57:10.863Z,596.00
2023-03-04T18:58:10.904Z,597.00
2023-03-04T18:59:10.969Z,595.00
2023-03-04T19:00:11.028Z,592.00
2023-03-04T19:01:11.094Z,600.00
2023-03-04T19:02:11.126Z,602.00
2023-03-04T19:03:11.182Z,597.00
2023-03-04T19:04:11.287Z,600.00
2023-03-04T19:05:11.574Z,595.00
2023-03-04T19:06:11.366Z,599.00
2023-03-04T19:07:11.419Z,599.00
2023-03-04T19:08:12.051Z,597.00
2023-03-04T19:09:11.551Z,599.00
2023-03-04T20:59:17.773Z,592.00
2023-03-04T21:00:17.835Z,590.00
2023-03-04T21:01:18.034Z,593.00
2023-03-04T21:02:17.977Z,585.00
2023-03-04T21:03:18.087Z,588.00
2023-03-04T21:04:18.052Z,585.00
2023-03-04T21:05:18.096Z,591.00
2023-03-04T21:06:18.143Z,592.00
2023-03-04T21:07:18.185Z,588.00
2023-03-04T21:08:18.225Z,586.00
2023-03-04T21:09:18.289Z,590.00
2023-03-04T21:10:18.320Z,595.00
2023-03-04T21:15:18.594Z,592.00
2023-03-04T21:16:18.637Z,588.00
2023-03-04T21:17:18.658Z,590.00
2023-03-04T21:18:18.679Z,586.00
2023-03-04T21:19:18.822Z,589.00
2023-03-04T21:20:18.805Z,590.00
2023-03-04T21:21:18.870Z,589.00
2023-03-04T21:22:18.927Z,588.00
2023-03-04T21:33:19.383Z,585.00
2023-03-04T21:45:19.569Z,585.00
2023-03-04T22:34:21.289Z,579.00
2023-03-04T22:35:21.344Z,576.00
2023-03-04T22:36:21.331Z,581.00
2023-03-04T22:37:21.361Z,581.00
2023-03-04T22:38:21.459Z,572.00
2023-03-04T22:39:21.406Z,579.00
2023-03-04T22:40:21.464Z,578.00
